createdAt,value
2023-01-17T00:02:19.871Z,28.87
2023-01-17T00:05:07.151Z,30.37
2023-01-17T00:07:53.779Z,28.83
2023-01-17T00:10:24.387Z,30.37
2023-01-17T00:12:52.362Z,28.93
2023-01-17T00:15:24.109Z,31.43
2023-01-17T00:17:53.832Z,27.90
2023-01-17T00:20:45.709Z,27.07
2023-01-17T00:23:35.973Z,29.93
2023-01-17T00:26:06.378Z,35.07
2023-01-17T00:28:39.172Z,30.47
2023-01-17T00:31:09.371Z,47.53
2023-01-17T00:33:37.319Z,31.27
2023-01-17T00:36:06.467Z,38.77
2023-01-17T00:38:36.824Z,34.97
2023-01-17T00:41:04.813Z,34.40
2023-01-17T00:43:51.097Z,32.40
2023-01-17T00:46:37.829Z,32.40
2023-01-17T00:49:24.912Z,32.83
2023-01-17T00:52:11.602Z,31.73
2023-01-17T00:54:57.840Z,33.03
2023-01-17T00:57:44.330Z,35.77
2023-01-17T01:00:31.274Z,31.97
2023-01-17T01:03:17.997Z,37.57
2023-01-17T01:06:04.126Z,33.17
2023-01-17T01:08:50.923Z,33.90
2023-01-17T01:11:39.870Z,35.30
2023-01-17T01:14:28.482Z,35.03
2023-01-17T01:17:15.039Z,31.07
2023-01-17T01:20:01.644Z,35.30
2023-01-17T01:22:47.783Z,38.23
2023-01-17T01:25:35.073Z,40.37
2023-01-17T01:28:24.973Z,36.60
2023-01-17T01:31:11.425Z,34.03
2023-01-17T01:33:38.866Z,38.90
2023-01-17T01:36:10.845Z,37.80
2023-01-17T01:38:38.752Z,37.87
2023-01-17T01:41:06.996Z,36.13
2023-01-17T01:43:51.008Z,34.23
2023-01-17T01:46:24.564Z,45.00
2023-01-17T01:48:57.232Z,35.33
2023-01-17T01:51:30.500Z,38.23
2023-01-17T01:54:14.887Z,36.63
2023-01-17T01:56:44.271Z,34.17
2023-01-17T01:59:15.947Z,33.97
2023-01-17T02:01:44.922Z,39.27
2023-01-17T02:04:13.190Z,38.77
2023-01-17T02:06:46.353Z,37.30
2023-01-17T02:09:16.450Z,37.00
2023-01-17T02:11:44.773Z,37.77
2023-01-17T02:14:16.704Z,36.87
2023-01-17T02:16:53.861Z,36.03
2023-01-17T02:19:31.097Z,39.53
2023-01-17T02:21:59.207Z,39.80
2023-01-17T02:24:40.091Z,40.97
2023-01-17T02:27:08.067Z,39.80
2023-01-17T02:29:46.455Z,37.80
2023-01-17T02:32:17.232Z,43.03
2023-01-17T02:35:22.220Z,40.93
2023-01-17T02:38:03.999Z,39.57
2023-01-17T02:40:46.381Z,41.20
2023-01-17T02:43:16.122Z,43.87
2023-01-17T02:45:45.941Z,40.50
2023-01-17T02:48:15.566Z,45.97
2023-01-17T02:50:55.798Z,44.30
2023-01-17T02:54:00.438Z,42.63
2023-01-17T02:56:58.077Z,41.50
2023-01-17T02:59:28.316Z,47.00
2023-01-17T03:02:07.452Z,42.27
2023-01-17T03:04:39.266Z,41.80
2023-01-17T03:07:13.177Z,44.30
2023-01-17T03:09:43.630Z,42.37
2023-01-17T03:12:11.408Z,45.63
2023-01-17T03:14:39.362Z,42.40
2023-01-17T03:17:07.029Z,43.70
2023-01-17T03:19:35.389Z,47.23
2023-01-17T03:22:03.405Z,44.77
2023-01-17T03:24:31.414Z,44.73
2023-01-17T03:26:59.457Z,41.37
2023-01-17T03:29:27.490Z,46.70
2023-01-17T03:31:55.244Z,48.20
2023-01-17T03:34:23.139Z,40.33
2023-01-17T03:36:51.010Z,45.77
2023-01-17T03:39:19.058Z,44.27
2023-01-17T03:41:46.699Z,46.80
2023-01-17T03:44:14.587Z,44.50
2023-01-17T03:46:42.238Z,44.67
2023-01-17T03:49:10.539Z,43.93
2023-01-17T03:51:38.191Z,45.83
2023-01-17T03:54:06.135Z,50.93
2023-01-17T03:56:33.820Z,46.30
2023-01-17T03:59:01.804Z,46.17
2023-01-17T04:01:29.498Z,44.47
2023-01-17T04:03:57.546Z,46.47
2023-01-17T04:06:25.250Z,42.40
2023-01-17T04:08:53.310Z,45.00
2023-01-17T04:11:21.114Z,44.57
2023-01-17T04:13:49.068Z,42.33
2023-01-17T04:16:17.907Z,43.27
2023-01-17T04:18:45.946Z,47.53
2023-01-17T04:21:13.619Z,43.60
2023-01-17T04:23:41.535Z,49.53
2023-01-17T04:26:09.956Z,46.33
2023-01-17T04:28:38.029Z,44.63
2023-01-17T04:31:05.807Z,46.77
2023-01-17T04:33:33.924Z,47.43
2023-01-17T04:36:01.925Z,44.03
2023-01-17T04:38:29.824Z,48.17
2023-01-17T04:40:57.425Z,50.00
2023-01-17T04:43:25.308Z,50.33
2023-01-17T04:45:56.663Z,53.10
2023-01-17T04:48:24.885Z,46.50
2023-01-17T04:50:52.495Z,47.20
2023-01-17T04:53:20.511Z,49.60
2023-01-17T04:55:48.119Z,48.87
2023-01-17T04:58:16.049Z,54.30
2023-01-17T05:00:43.731Z,58.90
2023-01-17T05:03:11.633Z,50.53
2023-01-17T05:05:39.322Z,53.83
2023-01-17T05:08:07.235Z,53.80
2023-01-17T05:10:34.921Z,49.77
2023-01-17T05:13:03.290Z,52.27
2023-01-17T05:15:31.239Z,53.57
2023-01-17T05:17:59.384Z,49.67
2023-01-17T05:20:27.908Z,50.40
2023-01-17T05:22:56.997Z,50.67
2023-01-17T05:25:25.769Z,52.23
2023-01-17T05:27:54.234Z,51.33
2023-01-17T05:30:22.906Z,52.43
2023-01-17T05:32:51.683Z,52.47
2023-01-17T05:35:20.021Z,52.17
2023-01-17T05:37:49.368Z,53.93
2023-01-17T05:40:18.051Z,54.80
2023-01-17T05:42:49.608Z,52.33
2023-01-17T05:45:17.862Z,51.80
2023-01-17T05:47:46.535Z,47.27
2023-01-17T05:50:15.045Z,52.83
2023-01-17T05:52:43.282Z,54.50
2023-01-17T05:55:11.210Z,55.33
2023-01-17T05:57:39.482Z,53.40
2023-01-17T06:00:07.501Z,55.43
2023-01-17T06:02:35.444Z,53.07
2023-01-17T06:05:03.646Z,50.80
2023-01-17T06:07:31.995Z,55.17
2023-01-17T06:09:59.688Z,49.97
2023-01-17T06:12:27.737Z,51.83
2023-01-17T06:14:55.431Z,52.70
2023-01-17T06:17:23.428Z,53.93
2023-01-17T06:19:51.245Z,56.10
2023-01-17T06:22:19.128Z,59.00
2023-01-17T06:24:46.789Z,66.67
2023-01-17T06:27:14.704Z,65.97
2023-01-17T06:29:42.313Z,66.17
2023-01-17T06:32:10.536Z,69.50
2023-01-17T06:34:38.711Z,65.73
2023-01-17T06:37:06.978Z,69.90
2023-01-17T06:39:34.974Z,60.97
2023-01-17T06:42:03.051Z,59.37
2023-01-17T06:44:30.681Z,63.83
2023-01-17T06:46:58.692Z,62.33
2023-01-17T06:49:26.485Z,69.10
2023-01-17T06:51:54.532Z,66.97
2023-01-17T06:54:22.241Z,63.80
2023-01-17T06:56:50.102Z,71.93
2023-01-17T06:59:17.790Z,64.03
2023-01-17T07:01:45.967Z,65.87
2023-01-17T07:04:13.683Z,62.03
2023-01-17T07:06:41.618Z,65.30
2023-01-17T07:09:09.364Z,59.60
2023-01-17T07:11:37.287Z,66.70
2023-01-17T07:14:05.122Z,70.47
2023-01-17T07:16:34.219Z,73.53
2023-01-17T07:19:01.914Z,70.07
2023-01-17T07:21:29.853Z,67.07
2023-01-17T07:23:57.531Z,67.67
2023-01-17T07:26:26.707Z,69.80
2023-01-17T07:28:54.222Z,71.97
2023-01-17T07:31:22.174Z,62.30
2023-01-17T07:33:49.949Z,65.37
2023-01-17T07:36:17.825Z,59.27
2023-01-17T07:38:46.876Z,63.17
2023-01-17T07:41:14.813Z,57.40
2023-01-17T07:43:42.513Z,62.03
2023-01-17T07:46:10.533Z,53.13
2023-01-17T07:48:38.108Z,52.83
2023-01-17T07:51:06.153Z,54.10
2023-01-17T07:53:33.793Z,50.27
2023-01-17T07:56:07.518Z,50.60
2023-01-17T07:58:36.948Z,52.67
2023-01-17T08:01:10.289Z,47.37
2023-01-17T08:03:40.300Z,47.30
2023-01-17T08:06:25.406Z,50.37
2023-01-17T08:08:56.493Z,49.40
2023-01-17T08:11:24.528Z,43.80
2023-01-17T08:13:57.550Z,44.23
2023-01-17T08:16:25.755Z,43.67
2023-01-17T08:18:53.627Z,39.60
2023-01-17T08:21:21.784Z,44.33
2023-01-17T08:23:50.054Z,48.77
2023-01-17T08:26:22.561Z,44.33
2023-01-17T08:28:56.025Z,41.57
2023-01-17T08:31:24.817Z,41.47
2023-01-17T08:33:52.639Z,45.20
2023-01-17T08:36:20.735Z,44.33
2023-01-17T08:38:52.769Z,39.40
2023-01-17T08:41:22.845Z,35.47
2023-01-17T08:43:51.887Z,40.43
2023-01-17T08:46:20.026Z,33.93
2023-01-17T08:48:47.611Z,36.43
2023-01-17T08:51:15.443Z,33.53
2023-01-17T08:53:43.128Z,35.40
2023-01-17T08:56:10.962Z,27.53
2023-01-17T08:58:38.848Z,31.03
2023-01-17T09:01:06.943Z,35.60
2023-01-17T09:03:35.289Z,30.53
2023-01-17T09:06:11.167Z,28.63
2023-01-17T09:08:39.221Z,31.20
2023-01-17T09:11:08.659Z,27.90
2023-01-17T09:13:36.519Z,29.83
2023-01-17T09:16:04.831Z,29.80
2023-01-17T09:18:34.007Z,27.67
2023-01-17T09:21:11.403Z,26.40
2023-01-17T09:23:39.192Z,27.93
2023-01-17T09:26:07.125Z,29.13
2023-01-17T09:28:42.751Z,25.43
2023-01-17T09:31:10.742Z,29.67
2023-01-17T09:33:41.127Z,23.97
2023-01-17T09:36:09.313Z,23.80
2023-01-17T09:38:37.256Z,24.47
2023-01-17T09:41:22.117Z,23.27
2023-01-17T09:44:16.378Z,24.83
2023-01-17T09:46:47.266Z,22.20
2023-01-17T09:49:50.921Z,20.43
2023-01-17T09:52:21.552Z,21.17
2023-01-17T09:54:50.863Z,21.53
2023-01-17T09:57:27.500Z,21.67
2023-01-17T10:00:13.475Z,23.23
2023-01-17T10:02:41.402Z,21.07
2023-01-17T10:05:38.006Z,20.83
2023-01-17T10:08:27.425Z,21.43
2023-01-17T10:11:15.788Z,18.07
2023-01-17T10:14:09.018Z,21.60
2023-01-17T10:16:36.641Z,17.10
2023-01-17T10:19:39.293Z,17.00
2023-01-17T10:22:23.467Z,18.47
2023-01-17T10:25:04.165Z,17.83
2023-01-17T10:27:38.789Z,16.30
2023-01-17T10:30:36.460Z,18.00
2023-01-17T10:33:20.454Z,17.53
2023-01-17T10:35:57.583Z,16.00
2023-01-17T10:38:30.972Z,18.17
2023-01-17T10:41:40.025Z,18.37
2023-01-17T10:44:07.569Z,15.37
2023-01-17T10:46:53.714Z,13.63
2023-01-17T10:49:25.157Z,13.73
2023-01-17T10:51:59.920Z,14.73
2023-01-17T10:54:27.616Z,11.60
2023-01-17T10:56:56.171Z,10.90
2023-01-17T10:59:32.473Z,12.90
2023-01-17T11:02:06.735Z,12.03
2023-01-17T11:04:40.013Z,11.93
2023-01-17T11:07:16.981Z,11.77
2023-01-17T11:09:53.724Z,13.77
2023-01-17T11:12:30.413Z,12.17
2023-01-17T11:15:21.685Z,12.33
2023-01-17T11:18:03.188Z,10.03
2023-01-17T11:20:35.884Z,14.83
2023-01-17T11:23:12.541Z,12.73
2023-01-17T11:25:40.218Z,11.17
2023-01-17T11:28:20.700Z,12.23
2023-01-17T11:30:53.273Z,11.33
2023-01-17T11:33:45.283Z,13.10
2023-01-17T11:36:19.837Z,10.33
2023-01-17T11:39:08.040Z,8.13
2023-01-17T11:41:35.622Z,9.33
2023-01-17T11:44:19.846Z,9.13
2023-01-17T11:46:47.519Z,9.97
2023-01-17T11:49:25.601Z,9.27
2023-01-17T11:51:56.202Z,11.47
2023-01-17T11:54:29.460Z,13.73
2023-01-17T11:57:01.588Z,10.90
2023-01-17T11:59:35.380Z,7.57
2023-01-17T12:02:40.443Z,8.87
2023-01-17T12:05:35.722Z,10.20
2023-01-17T12:08:24.076Z,8.03
2023-01-17T12:11:07.660Z,8.60
2023-01-17T12:14:01.557Z,7.67
2023-01-17T12:16:56.399Z,7.97
2023-01-17T12:19:41.276Z,9.53
2023-01-17T12:22:20.637Z,8.57
2023-01-17T12:24:50.833Z,7.23
2023-01-17T12:27:46.130Z,6.63
2023-01-17T12:30:13.716Z,7.53
2023-01-17T12:32:56.987Z,7.37
2023-01-17T12:35:45.696Z,7.37
2023-01-17T12:38:32.664Z,6.83
2023-01-17T12:41:15.478Z,6.20
2023-01-17T12:43:44.492Z,6.30
2023-01-17T12:46:23.746Z,4.67
2023-01-17T12:48:56.113Z,5.90
2023-01-17T12:51:33.020Z,5.67
2023-01-17T12:54:12.374Z,7.73
2023-01-17T12:56:54.748Z,5.57
2023-01-17T12:59:35.668Z,5.03
2023-01-17T13:02:15.734Z,3.93
2023-01-17T13:04:58.552Z,4.50
2023-01-17T13:07:35.220Z,5.00
2023-01-17T13:10:07.885Z,7.63
2023-01-17T13:12:38.865Z,4.70
2023-01-17T13:15:23.804Z,6.40
2023-01-17T13:18:14.700Z,6.40
2023-01-17T13:20:45.868Z,8.57
2023-01-17T13:23:17.524Z,7.07
2023-01-17T13:25:47.148Z,7.70
2023-01-17T13:28:17.492Z,4.67
2023-01-17T13:30:54.527Z,6.53
2023-01-17T13:33:26.175Z,5.67
2023-01-17T13:36:29.973Z,7.17
2023-01-17T13:38:58.192Z,4.90
2023-01-17T13:41:35.743Z,6.97
2023-01-17T13:44:22.186Z,5.83
2023-01-17T13:46:56.498Z,3.83
2023-01-17T13:49:27.311Z,5.60
2023-01-17T13:52:18.931Z,5.13
2023-01-17T13:54:50.442Z,7.13
2023-01-17T13:57:34.730Z,6.03
2023-01-17T14:00:27.909Z,6.13
2023-01-17T14:02:56.154Z,4.87
2023-01-17T14:05:38.957Z,6.10
2023-01-17T14:08:13.995Z,5.33
2023-01-17T14:10:49.440Z,4.97
2023-01-17T14:13:32.738Z,5.57
2023-01-17T14:16:01.166Z,6.70
2023-01-17T14:18:40.897Z,3.90
2023-01-17T14:21:13.394Z,5.10
2023-01-17T14:23:48.952Z,5.10
2023-01-17T14:26:37.182Z,6.93
2023-01-17T14:29:23.877Z,4.70
2023-01-17T14:32:00.019Z,7.27
2023-01-17T14:34:28.304Z,37.30
2023-01-17T14:37:04.403Z,6.93
2023-01-17T14:39:32.344Z,6.80
2023-01-17T14:41:59.975Z,7.43
2023-01-17T14:44:27.845Z,6.53
2023-01-17T14:46:57.205Z,4.97
2023-01-17T14:49:27.002Z,6.60
2023-01-17T14:52:05.016Z,7.10
2023-01-17T14:54:33.384Z,6.37
2023-01-17T14:57:31.610Z,8.37
2023-01-17T15:00:35.049Z,20.87
2023-01-17T15:03:03.625Z,10.83
2023-01-17T15:05:32.068Z,11.70
2023-01-17T15:07:59.982Z,22.80
2023-01-17T15:10:31.742Z,19.03
2023-01-17T15:13:09.443Z,9.00
2023-01-17T15:15:40.005Z,26.93
2023-01-17T15:18:20.982Z,10.87
2023-01-17T15:21:02.350Z,8.20
2023-01-17T15:23:34.713Z,11.27
2023-01-17T15:26:04.031Z,6.50
2023-01-17T15:28:32.037Z,8.47
2023-01-17T15:31:03.054Z,8.10
2023-01-17T15:33:32.976Z,8.03
2023-01-17T15:36:03.348Z,6.00
2023-01-17T15:38:38.609Z,7.43
2023-01-17T15:41:12.005Z,6.50
2023-01-17T15:43:41.180Z,7.23
2023-01-17T15:46:23.224Z,5.80
2023-01-17T15:48:51.920Z,6.80
2023-01-17T15:51:41.626Z,8.13
2023-01-17T15:54:24.585Z,7.80
2023-01-17T15:57:06.758Z,6.97
2023-01-17T15:59:51.558Z,7.17
2023-01-17T16:02:31.516Z,14.37
2023-01-17T16:05:01.070Z,7.73
2023-01-17T16:07:36.699Z,6.73
2023-01-17T16:10:25.003Z,6.47
2023-01-17T16:12:54.138Z,7.47
2023-01-17T16:15:23.628Z,8.63
2023-01-17T16:17:53.668Z,11.17
2023-01-17T16:20:28.528Z,14.20
2023-01-17T16:22:56.646Z,6.07
2023-01-17T16:25:25.225Z,6.93
2023-01-17T16:27:54.497Z,9.67
2023-01-17T16:30:22.477Z,6.67
2023-01-17T16:32:51.199Z,10.93
2023-01-17T16:35:22.983Z,11.30
2023-01-17T16:37:56.591Z,7.17
2023-01-17T16:40:30.031Z,9.00
2023-01-17T16:43:00.186Z,7.63
2023-01-17T16:45:28.356Z,7.07
2023-01-17T16:47:56.479Z,6.07
2023-01-17T16:50:25.310Z,7.10
2023-01-17T16:52:53.762Z,5.63
2023-01-17T16:55:23.172Z,6.37
2023-01-17T16:57:52.633Z,6.10
2023-01-17T17:00:20.958Z,6.93
2023-01-17T17:02:52.617Z,6.07
2023-01-17T17:05:21.020Z,11.13
2023-01-17T17:07:51.744Z,6.70
2023-01-17T17:10:21.002Z,5.43
2023-01-17T17:12:49.333Z,9.07
2023-01-17T17:15:17.271Z,7.57
2023-01-17T17:17:45.200Z,7.40
2023-01-17T17:20:14.257Z,6.13
2023-01-17T17:22:44.145Z,6.90
2023-01-17T17:25:12.532Z,8.77
2023-01-17T17:27:40.574Z,7.90
2023-01-17T17:30:09.165Z,7.87
2023-01-17T17:32:37.128Z,6.87
2023-01-17T17:35:05.127Z,5.47
2023-01-17T17:37:33.663Z,8.50
2023-01-17T17:40:01.279Z,8.27
2023-01-17T17:42:29.253Z,7.53
2023-01-17T17:44:56.940Z,9.27
2023-01-17T17:47:24.977Z,5.57
2023-01-17T17:49:53.149Z,6.60
2023-01-17T17:52:21.279Z,7.60
2023-01-17T17:54:49.487Z,9.43
2023-01-17T17:57:17.704Z,10.97
2023-01-17T17:59:45.310Z,7.30
2023-01-17T18:02:13.368Z,8.47
2023-01-17T18:04:41.230Z,8.90
2023-01-17T18:07:09.363Z,11.63
2023-01-17T18:09:37.188Z,12.93
2023-01-17T18:12:05.466Z,9.37
2023-01-17T18:14:34.079Z,10.03
2023-01-17T18:17:02.092Z,10.53
2023-01-17T18:19:29.926Z,9.87
2023-01-17T18:21:58.223Z,8.00
2023-01-17T18:24:26.565Z,12.60
2023-01-17T18:26:58.932Z,10.97
2023-01-17T18:29:27.495Z,10.53
2023-01-17T18:31:56.175Z,8.07
2023-01-17T18:34:28.594Z,9.53
2023-01-17T18:36:57.028Z,10.43
2023-01-17T18:39:29.981Z,11.60
2023-01-17T18:41:58.461Z,7.80
2023-01-17T18:44:30.232Z,14.70
2023-01-17T18:47:02.022Z,13.30
2023-01-17T18:49:30.101Z,22.47
2023-01-17T18:51:58.031Z,41.63
2023-01-17T18:54:27.897Z,61.07
2023-01-17T18:56:56.126Z,22.53
2023-01-17T18:59:24.299Z,12.37
2023-01-17T19:01:52.777Z,14.97
2023-01-17T19:04:21.691Z,13.63
2023-01-17T19:06:49.981Z,16.13
2023-01-17T19:09:18.525Z,12.37
2023-01-17T19:11:47.632Z,13.37
2023-01-17T19:14:15.945Z,15.37
2023-01-17T19:16:43.994Z,14.70
2023-01-17T19:19:14.727Z,13.43
2023-01-17T19:21:42.877Z,13.87
2023-01-17T19:24:13.372Z,14.27
2023-01-17T19:26:43.354Z,14.83
2023-01-17T19:29:12.381Z,14.10
2023-01-17T19:31:43.416Z,12.70
2023-01-17T19:34:14.060Z,14.27
2023-01-17T19:36:41.932Z,12.57
2023-01-17T19:39:10.351Z,12.60
2023-01-17T19:41:46.656Z,14.40
2023-01-17T19:44:15.388Z,15.27
2023-01-17T19:46:44.396Z,16.50
2023-01-17T19:49:13.506Z,12.57
2023-01-17T19:51:42.309Z,14.93
2023-01-17T19:54:10.795Z,16.63
2023-01-17T19:56:38.691Z,17.80
2023-01-17T19:59:07.334Z,18.53
2023-01-17T20:01:35.339Z,14.27
2023-01-17T20:04:05.235Z,15.00
2023-01-17T20:06:37.099Z,17.47
2023-01-17T20:09:06.075Z,12.07
2023-01-17T20:11:34.202Z,14.70
2023-01-17T20:14:02.237Z,18.37
2023-01-17T20:16:31.200Z,18.77
2023-01-17T20:19:00.312Z,19.57
2023-01-17T20:21:29.031Z,17.80
2023-01-17T20:23:58.638Z,15.90
2023-01-17T20:26:35.261Z,16.20
2023-01-17T20:29:22.381Z,18.43
2023-01-17T20:31:52.649Z,18.97
2023-01-17T20:34:21.263Z,14.87
2023-01-17T20:36:49.307Z,16.47
2023-01-17T20:39:19.286Z,16.97
2023-01-17T20:41:49.323Z,36.10
2023-01-17T20:44:20.292Z,40.13
2023-01-17T20:46:48.413Z,29.53
2023-01-17T20:49:19.028Z,31.03
2023-01-17T20:51:47.439Z,49.17
2023-01-17T20:54:17.816Z,31.33
2023-01-17T20:56:47.625Z,20.77
2023-01-17T20:59:18.789Z,20.90
2023-01-17T21:01:46.707Z,23.47
2023-01-17T21:05:04.450Z,20.27
2023-01-17T21:07:32.250Z,18.30
2023-01-17T21:10:00.132Z,24.97
2023-01-17T21:12:27.924Z,25.37
2023-01-17T21:14:55.752Z,28.20
2023-01-17T21:17:23.120Z,26.27
2023-01-17T21:19:51.011Z,23.90
2023-01-17T21:22:18.601Z,24.67
2023-01-17T21:24:46.778Z,24.10
2023-01-17T21:27:17.268Z,22.07
2023-01-17T21:29:45.355Z,23.57
2023-01-17T21:32:12.685Z,25.50
2023-01-17T21:34:41.027Z,23.90
2023-01-17T21:37:09.067Z,23.27
2023-01-17T21:39:36.872Z,20.27
2023-01-17T21:42:04.342Z,25.23
2023-01-17T21:44:36.375Z,20.90
2023-01-17T21:47:04.011Z,24.57
2023-01-17T21:49:31.720Z,23.30
2023-01-17T21:51:59.476Z,22.13
2023-01-17T21:54:48.734Z,23.90
2023-01-17T21:57:38.246Z,19.53
2023-01-17T22:00:07.747Z,23.50
2023-01-17T22:02:44.686Z,24.67
2023-01-17T22:05:13.305Z,27.03
2023-01-17T22:08:01.111Z,27.17
2023-01-17T22:10:29.122Z,26.90
2023-01-17T22:12:56.745Z,29.23
2023-01-17T22:15:24.794Z,20.57
2023-01-17T22:17:52.467Z,30.90
2023-01-17T22:20:21.469Z,26.43
2023-01-17T22:22:48.881Z,24.43
2023-01-17T22:25:16.468Z,28.53
2023-01-17T22:27:43.710Z,27.57
2023-01-17T22:30:13.190Z,29.23
2023-01-17T22:32:41.701Z,27.97
2023-01-17T22:35:09.609Z,36.07
2023-01-17T22:37:36.934Z,31.17
2023-01-17T22:40:06.127Z,29.40
2023-01-17T22:42:36.543Z,30.40
2023-01-17T22:45:05.351Z,32.07
2023-01-17T22:47:34.990Z,31.23
2023-01-17T22:50:04.749Z,34.60
2023-01-17T22:52:32.806Z,32.83
2023-01-17T22:55:00.321Z,32.13
2023-01-17T22:57:27.952Z,33.93
2023-01-17T22:59:56.024Z,49.33
2023-01-17T23:02:23.290Z,76.47
2023-01-17T23:04:51.387Z,41.90
2023-01-17T23:07:18.659Z,36.50
2023-01-17T23:09:47.473Z,39.93
2023-01-17T23:12:14.662Z,39.10
2023-01-17T23:15:01.126Z,32.77
2023-01-17T23:17:47.315Z,35.43
2023-01-17T23:20:15.230Z,36.83
2023-01-17T23:22:43.023Z,36.87
2023-01-17T23:25:12.919Z,34.80
2023-01-17T23:28:25.543Z,38.20
2023-01-17T23:30:53.429Z,42.37
2023-01-17T23:33:20.979Z,38.17
2023-01-17T23:35:48.921Z,37.83
2023-01-17T23:38:34.680Z,46.97
2023-01-17T23:41:28.108Z,40.10
2023-01-17T23:43:57.732Z,40.07
2023-01-17T23:46:26.620Z,38.83
2023-01-17T23:48:55.226Z,39.00
2023-01-17T23:51:23.504Z,40.97
2023-01-17T23:53:55.260Z,40.17
2023-01-17T23:56:24.830Z,36.30
2023-01-17T23:58:52.371Z,41.80
